Terminal Aerodrome Forecast
Issued by NWS Pendleton, OR

Home | Current Version | Previous Version | Text Only | Print | Product List | Glossary On
Versions: 1 2 3 4 5 6 7 8 9 10 11 12 13 14 15 16 17 18 19 20 21 22 23 24 25 26 27
000
FTUS46 KPDT 282100 AAC
TAFPDT
TAF AMD
KPDT 282145Z 2822/2918 14005KT P6SM SCT050
     FM290000 33008KT 2SM BR BKN007
      TEMPO 2900/2902 1/2SM FG VV002
     FM290600 11003KT 5SM BR SCT010 OVC030
     FM291300 09003KT 3SM BR SCT005 BKN015=

USA.gov is the U.S. government's official web portal to all federal, state and local government web resources and services.